createdAt,value
2019-05-11T00:00:40.686Z,10.68
2019-05-11T00:05:00.997Z,10.67
2019-05-11T00:09:21.143Z,10.69
2019-05-11T00:13:41.692Z,10.76
2019-05-11T00:18:02.468Z,10.71
2019-05-11T00:22:23.483Z,10.60
2019-05-11T00:26:44.295Z,10.39
2019-05-11T00:31:04.954Z,10.46
2019-05-11T00:35:25.613Z,10.31
2019-05-11T00:39:46.343Z,10.22
2019-05-11T00:44:06.570Z,10.20
2019-05-11T00:48:27.301Z,10.20
2019-05-11T00:52:48.293Z,10.06
2019-05-11T00:57:09.090Z,10.15
2019-05-11T01:01:29.641Z,10.21
2019-05-11T01:05:50.014Z,10.21
2019-05-11T01:10:23.063Z,10.14
2019-05-11T01:14:33.336Z,10.04
2019-05-11T01:18:53.745Z,10.13
2019-05-11T01:23:14.780Z,10.02
2019-05-11T01:27:35.349Z,9.99
2019-05-11T01:31:56.178Z,10.07
2019-05-11T01:36:16.974Z,10.02
2019-05-11T01:40:37.778Z,10.05
2019-05-11T01:44:57.995Z,9.99
2019-05-11T01:49:18.952Z,10.03
2019-05-11T01:53:39.330Z,9.95
2019-05-11T01:57:59.886Z,9.95
2019-05-11T02:02:20.543Z,9.83
2019-05-11T02:06:41.371Z,9.89
2019-05-11T02:11:14.978Z,9.89
2019-05-11T02:15:24.461Z,9.88
2019-05-11T02:19:45.310Z,9.83
2019-05-11T02:24:05.805Z,9.79
2019-05-11T02:28:26.755Z,9.62
2019-05-11T02:32:47.646Z,9.59
2019-05-11T02:37:08.246Z,9.59
2019-05-11T02:41:36.183Z,9.67
2019-05-11T02:45:51.280Z,9.64
2019-05-11T02:50:11.944Z,9.86
2019-05-11T02:54:32.747Z,9.86
2019-05-11T02:58:52.984Z,9.82
2019-05-11T03:03:14.040Z,9.88
2019-05-11T03:07:34.680Z,9.89
2019-05-11T03:11:56.546Z,9.93
2019-05-11T03:16:17.027Z,9.92
2019-05-11T03:20:37.916Z,9.90
2019-05-11T03:25:02.878Z,9.93
2019-05-11T03:29:23.513Z,9.97
2019-05-11T03:33:44.228Z,10.04
2019-05-11T03:38:05.386Z,10.06
2019-05-11T03:42:25.705Z,10.06
2019-05-11T03:46:46.830Z,10.18
2019-05-11T03:51:08.280Z,9.97
2019-05-11T03:55:29.073Z,10.07
2019-05-11T03:59:49.382Z,10.07
2019-05-11T04:04:10.490Z,10.02
2019-05-11T04:08:30.810Z,10.02
2019-05-11T04:12:51.914Z,10.12
2019-05-11T04:17:12.881Z,10.04
2019-05-11T04:21:33.378Z,10.04
2019-05-11T04:25:54.117Z,10.22
2019-05-11T04:30:14.904Z,10.14
2019-05-11T04:34:35.340Z,10.01
2019-05-11T04:38:55.380Z,10.10
2019-05-11T04:43:15.528Z,10.10
2019-05-11T04:47:36.569Z,10.16
2019-05-11T04:51:57.264Z,10.16
2019-05-11T04:56:18.023Z,10.15
2019-05-11T05:00:38.794Z,10.16
2019-05-11T05:04:58.923Z,10.19
2019-05-11T05:09:20.303Z,10.27
2019-05-11T05:13:45.738Z,10.14
2019-05-11T05:18:06.769Z,10.18
2019-05-11T05:22:28.053Z,10.32
2019-05-11T05:26:48.997Z,10.27
2019-05-11T05:31:10.054Z,10.33
2019-05-11T05:35:30.852Z,10.36
2019-05-11T05:39:51.625Z,10.31
2019-05-11T05:44:12.417Z,10.49
2019-05-11T05:48:32.640Z,10.32
2019-05-11T05:52:53.157Z,10.55
2019-05-11T05:57:13.680Z,10.43
2019-05-11T06:01:34.383Z,10.29
2019-05-11T06:05:54.903Z,10.42
2019-05-11T06:10:15.624Z,10.42
2019-05-11T06:14:36.068Z,10.50
2019-05-11T06:18:56.743Z,10.50
2019-05-11T06:23:17.315Z,10.57
2019-05-11T06:27:37.634Z,10.38
2019-05-11T06:31:59.589Z,10.38
2019-05-11T06:36:20.561Z,10.63
2019-05-11T06:40:41.135Z,10.46
2019-05-11T06:45:01.831Z,10.53
2019-05-11T06:49:22.368Z,10.42
2019-05-11T06:53:42.860Z,10.55
2019-05-11T06:58:03.016Z,10.55
2019-05-11T07:02:23.133Z,10.55
2019-05-11T07:06:43.902Z,10.32
2019-05-11T07:11:04.240Z,10.53
2019-05-11T07:15:24.718Z,10.50
2019-05-11T07:19:49.306Z,10.58
2019-05-11T07:24:10.307Z,10.48
2019-05-11T07:28:31.008Z,10.48
2019-05-11T07:32:51.103Z,10.64
2019-05-11T07:37:12.017Z,10.74
2019-05-11T07:41:32.167Z,10.59
2019-05-11T07:45:52.869Z,10.76
2019-05-11T07:50:14.124Z,10.67
2019-05-11T07:54:34.852Z,10.63
2019-05-11T07:58:57.873Z,10.63
2019-05-11T08:03:18.827Z,10.65
2019-05-11T08:07:39.219Z,10.65
2019-05-11T08:11:59.685Z,10.60
2019-05-11T08:16:20.208Z,10.63
2019-05-11T08:20:41.245Z,10.69
2019-05-11T08:25:01.871Z,10.44
2019-05-11T08:29:23.188Z,10.78
2019-05-11T08:33:44.430Z,10.76
2019-05-11T08:38:06.054Z,10.88
2019-05-11T08:42:28.918Z,10.88
2019-05-11T08:46:49.983Z,11.16
2019-05-11T08:51:10.619Z,11.16
2019-05-11T08:55:31.284Z,11.31
2019-05-11T08:59:52.082Z,11.21
2019-05-11T09:04:12.275Z,11.20
2019-05-11T09:08:32.946Z,11.27
2019-05-11T09:12:53.114Z,11.56
2019-05-11T09:17:13.738Z,11.74
2019-05-11T09:21:34.387Z,11.75
2019-05-11T09:25:58.173Z,11.75
2019-05-11T09:30:18.646Z,11.82
2019-05-11T09:34:40.074Z,11.72
2019-05-11T09:39:00.945Z,12.16
2019-05-11T09:43:22.877Z,12.18
2019-05-11T09:47:43.138Z,12.18
2019-05-11T09:52:04.492Z,12.36
2019-05-11T09:56:25.610Z,12.14
2019-05-11T10:00:47.935Z,12.35
2019-05-11T10:05:08.655Z,12.65
2019-05-11T10:09:29.098Z,12.40
2019-05-11T10:13:49.956Z,12.38
2019-05-11T10:18:10.340Z,12.36
2019-05-11T10:22:31.865Z,12.10
2019-05-11T10:26:52.408Z,12.43
2019-05-11T10:31:13.341Z,12.62
2019-05-11T10:35:34.516Z,13.00
2019-05-11T10:39:57.654Z,12.74
2019-05-11T10:44:18.793Z,13.16
2019-05-11T10:48:39.549Z,12.88
2019-05-11T10:53:00.213Z,13.02
2019-05-11T10:57:20.562Z,12.77
2019-05-11T11:01:41.136Z,12.83
2019-05-11T11:06:01.800Z,12.89
2019-05-11T11:10:22.427Z,12.83
2019-05-11T11:14:43.113Z,13.10
2019-05-11T11:19:04.761Z,13.01
2019-05-11T11:23:25.500Z,13.00
2019-05-11T11:27:48.415Z,13.36
2019-05-11T11:32:08.807Z,13.37
2019-05-11T11:36:29.516Z,13.69
2019-05-11T11:40:50.844Z,13.96
2019-05-11T11:45:12.756Z,13.82
2019-05-11T11:49:33.632Z,13.95
2019-05-11T11:53:54.583Z,14.19
2019-05-11T11:58:15.377Z,13.92
2019-05-11T12:02:38.590Z,13.93
2019-05-11T12:06:58.853Z,14.30
2019-05-11T12:11:20.178Z,13.95
2019-05-11T12:15:40.644Z,13.92
2019-05-11T12:20:01.255Z,13.84
2019-05-11T12:24:21.729Z,13.75
2019-05-11T12:28:42.216Z,14.17
2019-05-11T12:33:02.577Z,14.31
2019-05-11T12:37:23.420Z,14.44
2019-05-11T12:41:43.969Z,14.74
2019-05-11T12:46:04.204Z,14.71
2019-05-11T12:50:25.099Z,14.23
2019-05-11T12:54:45.190Z,14.75
2019-05-11T12:59:08.014Z,14.51
2019-05-11T13:03:28.198Z,15.24
2019-05-11T13:07:48.578Z,15.19
2019-05-11T13:12:11.750Z,14.39
2019-05-11T13:16:32.600Z,13.96
2019-05-11T13:20:53.289Z,14.10
2019-05-11T13:25:15.083Z,13.90
2019-05-11T13:29:37.777Z,13.40
2019-05-11T13:33:58.655Z,13.87
2019-05-11T13:38:19.774Z,14.17
2019-05-11T13:42:41.408Z,13.70
2019-05-11T13:47:13.433Z,13.55
2019-05-11T13:51:34.129Z,13.56
2019-05-11T13:55:55.074Z,13.42
2019-05-11T14:00:17.599Z,14.07
2019-05-11T14:04:38.658Z,14.83
2019-05-11T14:08:59.767Z,14.24
2019-05-11T14:13:19.951Z,14.66
2019-05-11T14:17:40.418Z,15.09
2019-05-11T14:22:01.252Z,15.47
2019-05-11T14:26:24.532Z,14.84
2019-05-11T14:30:45.373Z,14.40
2019-05-11T14:35:11.333Z,14.17
2019-05-11T14:39:28.373Z,14.55
2019-05-11T14:43:49.131Z,14.82
2019-05-11T14:48:22.930Z,15.21
2019-05-11T14:52:39.189Z,15.31
2019-05-11T14:56:59.821Z,15.08
2019-05-11T15:01:20.317Z,14.99
2019-05-11T15:05:41.616Z,15.24
2019-05-11T15:10:02.507Z,15.54
2019-05-11T15:14:23.224Z,15.76
2019-05-11T15:18:43.573Z,15.80
2019-05-11T15:23:04.123Z,15.16
2019-05-11T15:27:24.931Z,15.05
2019-05-11T15:31:45.827Z,14.59
2019-05-11T15:36:07.619Z,14.69
2019-05-11T15:40:28.534Z,14.58
2019-05-11T15:44:49.114Z,14.55
2019-05-11T15:49:09.575Z,14.83
2019-05-11T15:53:30.254Z,15.31
2019-05-11T15:57:52.119Z,15.10
2019-05-11T16:02:12.596Z,15.43
2019-05-11T16:06:36.035Z,15.42
2019-05-11T16:10:57.858Z,14.88
2019-05-11T16:15:19.409Z,14.86
2019-05-11T16:19:41.092Z,14.57
2019-05-11T16:24:02.389Z,14.50
2019-05-11T16:28:23.576Z,14.42
2019-05-11T16:32:44.335Z,14.43
2019-05-11T16:37:05.544Z,14.34
2019-05-11T16:41:29.194Z,14.11
2019-05-11T16:45:51.111Z,14.43
2019-05-11T16:50:12.312Z,14.22
2019-05-11T16:54:32.780Z,14.29
2019-05-11T16:58:54.865Z,14.63
2019-05-11T17:03:16.295Z,15.35
2019-05-11T17:07:37.673Z,16.24
2019-05-11T17:11:58.389Z,17.15
2019-05-11T17:16:19.510Z,16.75
2019-05-11T17:20:40.158Z,15.99
2019-05-11T17:25:00.439Z,15.46
2019-05-11T17:29:21.924Z,15.21
2019-05-11T17:33:42.644Z,14.66
2019-05-11T17:38:03.238Z,14.49
2019-05-11T17:42:23.569Z,14.95
2019-05-11T17:46:44.403Z,15.93
2019-05-11T17:55:19.008Z,15.70
2019-05-11T17:59:40.417Z,15.30
2019-05-11T18:04:01.377Z,14.94
2019-05-11T18:08:22.432Z,14.84
2019-05-11T18:12:42.932Z,14.63
2019-05-11T18:17:04.200Z,14.18
2019-05-11T18:21:24.452Z,14.06
2019-05-11T18:25:48.032Z,13.91
2019-05-11T18:30:09.048Z,13.88
2019-05-11T18:34:30.043Z,14.19
2019-05-11T18:38:51.218Z,13.75
2019-05-11T18:43:11.827Z,13.73
2019-05-11T18:47:31.976Z,13.63
2019-05-11T18:51:52.533Z,13.73
2019-05-11T18:56:13.282Z,13.53
2019-05-11T19:00:34.983Z,13.43
2019-05-11T19:04:58.032Z,13.12
2019-05-11T19:09:18.554Z,12.96
2019-05-11T19:13:39.278Z,12.95
2019-05-11T19:17:59.803Z,12.69
2019-05-11T19:22:21.277Z,12.65
2019-05-11T19:26:42.935Z,12.61
2019-05-11T19:31:03.840Z,12.57
2019-05-11T19:35:28.104Z,12.61
2019-05-11T19:39:50.792Z,12.69
2019-05-11T19:44:12.014Z,12.41
2019-05-11T19:48:32.294Z,12.31
2019-05-11T19:52:53.332Z,12.39
2019-05-11T19:57:14.296Z,12.14
2019-05-11T20:01:35.187Z,12.05
2019-05-11T20:05:58.071Z,11.97
2019-05-11T20:10:19.293Z,11.82
2019-05-11T20:14:40.069Z,11.82
2019-05-11T20:19:00.837Z,11.82
2019-05-11T20:23:21.724Z,11.82
2019-05-11T20:27:42.547Z,11.58
2019-05-11T20:32:03.722Z,11.42
2019-05-11T20:36:26.466Z,11.51
2019-05-11T20:40:48.419Z,11.27
2019-05-11T20:45:10.563Z,11.45
2019-05-11T20:49:31.104Z,11.24
2019-05-11T20:53:51.651Z,11.12
2019-05-11T20:58:13.179Z,11.23
2019-05-11T21:02:34.438Z,10.96
2019-05-11T21:06:54.763Z,10.96
2019-05-11T21:11:17.920Z,10.86
2019-05-11T21:15:38.696Z,10.63
2019-05-11T21:20:00.500Z,10.76
2019-05-11T21:24:21.963Z,10.52
2019-05-11T21:28:42.675Z,10.59
2019-05-11T21:33:04.780Z,10.31
2019-05-11T21:37:27.633Z,10.25
2019-05-11T21:41:48.190Z,10.34
2019-05-11T21:46:08.980Z,10.30
2019-05-11T21:50:29.813Z,10.27
2019-05-11T21:54:50.052Z,10.09
2019-05-11T21:59:10.649Z,10.01
2019-05-11T22:03:30.957Z,9.93
2019-05-11T22:07:52.342Z,9.88
2019-05-11T22:12:13.391Z,9.77
2019-05-11T22:16:33.656Z,9.43
2019-05-11T22:20:54.309Z,9.33
2019-05-11T22:25:15.338Z,9.45
2019-05-11T22:29:37.886Z,9.45
2019-05-11T22:33:58.433Z,9.33
2019-05-11T22:38:20.056Z,9.32
2019-05-11T22:42:40.800Z,9.13
2019-05-11T22:47:01.781Z,9.02
2019-05-11T22:51:23.909Z,8.93
2019-05-11T22:55:44.519Z,8.86
2019-05-11T23:00:08.005Z,8.95
2019-05-11T23:04:28.779Z,8.78
2019-05-11T23:08:53.871Z,8.67
2019-05-11T23:13:11.759Z,8.89
2019-05-11T23:17:32.847Z,8.69
2019-05-11T23:21:53.476Z,8.52
2019-05-11T23:26:13.806Z,8.41
2019-05-11T23:30:35.266Z,8.52
2019-05-11T23:34:55.885Z,8.46
2019-05-11T23:39:17.859Z,8.32
2019-05-11T23:43:38.718Z,8.30
2019-05-11T23:47:59.228Z,8.28
2019-05-11T23:52:20.382Z,8.18
2019-05-11T23:56:40.876Z,8.10
